createdAt,value
2023-05-05T00:00:12.689Z,417.02
2023-05-05T00:01:12.776Z,416.25
2023-05-05T00:02:12.916Z,416.25
2023-05-05T00:03:12.991Z,417.28
2023-05-05T00:04:13.097Z,415.99
2023-05-05T00:05:13.087Z,415.73
2023-05-05T00:06:13.174Z,419.37
2023-05-05T00:07:13.241Z,415.99
2023-05-05T00:08:13.318Z,417.54
2023-05-05T00:09:13.386Z,418.06
2023-05-05T00:10:13.472Z,414.96
2023-05-05T00:11:19.544Z,418.06
2023-05-05T00:12:13.656Z,417.02
2023-05-05T00:13:13.768Z,415.73
2023-05-05T00:14:13.825Z,418.58
2023-05-05T00:15:13.930Z,415.99
2023-05-05T00:16:14.013Z,414.71
2023-05-05T00:17:14.107Z,416.25
2023-05-05T00:18:14.237Z,416.25
2023-05-05T00:19:14.238Z,415.48
2023-05-05T00:20:14.365Z,416.25
2023-05-05T00:21:14.407Z,416.51
2023-05-05T00:22:14.489Z,415.99
2023-05-05T00:23:14.584Z,415.22
2023-05-05T00:24:14.655Z,417.02
2023-05-05T00:25:14.746Z,417.54
2023-05-05T00:26:14.831Z,418.06
2023-05-05T00:27:14.917Z,415.99
2023-05-05T00:28:15.006Z,416.25
2023-05-05T00:29:15.074Z,414.96
2023-05-05T00:30:15.145Z,415.22
2023-05-05T00:31:15.238Z,416.51
2023-05-05T00:32:15.304Z,414.71
2023-05-05T00:33:15.379Z,417.02
2023-05-05T00:34:15.494Z,415.22
2023-05-05T00:35:15.541Z,415.22
2023-05-05T00:36:15.622Z,416.25
2023-05-05T00:37:15.713Z,417.80
2023-05-05T00:38:15.787Z,418.06
2023-05-05T00:39:15.872Z,417.80
2023-05-05T00:40:15.942Z,415.73
2023-05-05T00:41:16.050Z,415.99
2023-05-05T00:42:22.121Z,417.02
2023-05-05T00:43:16.173Z,415.48
2023-05-05T00:44:16.263Z,417.54
2023-05-05T00:45:16.332Z,417.54
2023-05-05T00:46:16.448Z,416.77
2023-05-05T00:47:16.504Z,416.77
2023-05-05T00:48:16.604Z,416.77
2023-05-05T00:49:16.815Z,416.77
2023-05-05T00:50:16.743Z,418.06
2023-05-05T00:51:16.830Z,417.28
2023-05-05T00:52:16.906Z,415.99
2023-05-05T00:53:16.975Z,418.06
2023-05-05T00:54:17.042Z,416.51
2023-05-05T00:55:17.125Z,416.25
2023-05-05T00:56:17.183Z,415.99
2023-05-05T00:57:17.298Z,418.32
2023-05-05T00:58:17.344Z,418.06
2023-05-05T00:59:17.431Z,417.54
2023-05-05T01:00:17.511Z,416.51
2023-05-05T01:01:18.560Z,417.28
2023-05-05T01:02:17.681Z,418.58
2023-05-05T01:03:17.833Z,417.02
2023-05-05T01:04:17.827Z,417.80
2023-05-05T01:05:17.907Z,418.06
2023-05-05T01:06:17.984Z,417.28
2023-05-05T01:07:18.073Z,417.80
2023-05-05T01:08:18.173Z,417.02
2023-05-05T01:09:18.253Z,417.28
2023-05-05T01:10:20.680Z,418.32
2023-05-05T01:11:18.414Z,418.06
2023-05-05T01:12:18.498Z,417.02
2023-05-05T01:13:24.668Z,416.25
2023-05-05T01:14:18.640Z,414.71
2023-05-05T01:15:18.712Z,417.28
2023-05-05T01:16:18.825Z,418.06
2023-05-05T01:17:18.869Z,416.51
2023-05-05T01:18:18.967Z,419.11
2023-05-05T01:19:19.022Z,417.28
2023-05-05T01:20:19.099Z,417.28
2023-05-05T01:21:19.170Z,417.28
2023-05-05T01:22:19.243Z,417.80
2023-05-05T01:23:19.335Z,417.54
2023-05-05T01:24:19.427Z,414.96
2023-05-05T01:25:19.502Z,417.54
2023-05-05T01:26:19.600Z,418.32
2023-05-05T01:27:19.685Z,416.51
2023-05-05T01:28:19.757Z,416.25
2023-05-05T01:29:19.844Z,417.54
2023-05-05T01:30:19.934Z,417.80
2023-05-05T01:31:20.061Z,418.06
2023-05-05T01:32:20.148Z,418.06
2023-05-05T01:33:20.182Z,417.02
2023-05-05T01:34:20.271Z,416.77
2023-05-05T01:35:20.351Z,416.77
2023-05-05T01:36:20.432Z,417.80
2023-05-05T01:37:20.508Z,417.54
2023-05-05T01:38:20.576Z,417.02
2023-05-05T01:39:20.650Z,416.51
2023-05-05T01:40:20.744Z,418.06
2023-05-05T01:41:20.810Z,416.51
2023-05-05T01:42:20.889Z,418.32
2023-05-05T01:43:20.963Z,419.37
2023-05-05T01:44:27.022Z,417.28
2023-05-05T01:45:21.132Z,419.63
2023-05-05T01:46:21.250Z,417.54
2023-05-05T01:47:21.307Z,418.32
2023-05-05T01:48:21.383Z,418.85
2023-05-05T01:49:21.470Z,418.06
2023-05-05T01:50:21.533Z,419.89
2023-05-05T01:51:21.620Z,418.06
2023-05-05T01:52:21.698Z,419.37
2023-05-05T01:53:21.788Z,417.80
2023-05-05T01:54:21.848Z,419.11
2023-05-05T01:55:21.936Z,417.80
2023-05-05T01:56:22.011Z,418.06
2023-05-05T01:57:22.091Z,419.63
2023-05-05T01:58:22.147Z,417.54
2023-05-05T01:59:22.234Z,419.63
2023-05-05T02:00:22.326Z,417.80
2023-05-05T02:01:22.414Z,415.73
2023-05-05T02:02:22.540Z,417.54
2023-05-05T02:03:23.234Z,418.58
2023-05-05T02:04:22.812Z,419.63
2023-05-05T02:05:22.719Z,419.63
2023-05-05T02:06:22.800Z,417.80
2023-05-05T02:07:22.883Z,418.32
2023-05-05T02:08:22.956Z,418.85
2023-05-05T02:09:23.043Z,418.32
2023-05-05T02:10:23.109Z,414.96
2023-05-05T02:11:23.237Z,419.11
2023-05-05T02:12:23.270Z,416.77
2023-05-05T02:13:23.380Z,418.06
2023-05-05T02:14:23.440Z,421.21
2023-05-05T02:15:29.583Z,417.54
2023-05-05T02:16:23.719Z,417.54
2023-05-05T02:17:23.688Z,417.80
2023-05-05T02:18:23.744Z,416.77
2023-05-05T02:19:23.829Z,417.80
2023-05-05T02:20:23.909Z,419.37
2023-05-05T02:21:24.022Z,419.11
2023-05-05T02:22:24.073Z,415.73
2023-05-05T02:23:24.143Z,415.99
2023-05-05T02:24:24.245Z,417.80
2023-05-05T02:25:24.339Z,418.06
2023-05-05T02:26:24.439Z,418.85
2023-05-05T02:27:24.501Z,419.11
2023-05-05T02:28:24.567Z,418.85
2023-05-05T02:29:24.637Z,419.37
2023-05-05T02:30:24.713Z,420.15
2023-05-05T02:31:24.824Z,417.54
2023-05-05T02:32:24.929Z,420.42
2023-05-05T02:33:24.975Z,419.63
2023-05-05T02:34:25.065Z,419.37
2023-05-05T02:35:25.130Z,420.94
2023-05-05T02:36:25.288Z,420.15
2023-05-05T02:37:25.323Z,418.85
2023-05-05T02:38:25.393Z,419.37
2023-05-05T02:39:25.477Z,419.63
2023-05-05T02:40:25.554Z,419.37
2023-05-05T02:41:25.642Z,417.80
2023-05-05T02:42:25.714Z,421.21
2023-05-05T02:43:25.882Z,418.32
2023-05-05T02:44:25.858Z,416.25
2023-05-05T02:45:25.937Z,419.63
2023-05-05T02:46:32.017Z,419.89
2023-05-05T02:47:26.114Z,420.15
2023-05-05T02:48:26.195Z,420.15
2023-05-05T02:49:26.262Z,418.58
2023-05-05T02:50:26.342Z,419.63
2023-05-05T02:51:26.419Z,417.28
2023-05-05T02:52:26.493Z,418.58
2023-05-05T02:53:26.605Z,421.47
2023-05-05T02:54:26.666Z,421.21
2023-05-05T02:55:26.726Z,419.37
2023-05-05T02:56:26.792Z,418.85
2023-05-05T02:57:26.858Z,419.11
2023-05-05T02:58:26.957Z,418.85
2023-05-05T02:59:27.049Z,420.68
2023-05-05T03:00:27.115Z,418.06
2023-05-05T03:01:27.204Z,419.89
2023-05-05T03:02:27.370Z,419.11
2023-05-05T03:03:27.451Z,418.85
2023-05-05T03:04:27.434Z,417.80
2023-05-05T03:05:27.507Z,419.11
2023-05-05T03:06:27.612Z,419.63
2023-05-05T03:07:27.770Z,417.54
2023-05-05T03:08:27.784Z,420.68
2023-05-05T03:09:27.864Z,418.06
2023-05-05T03:10:27.947Z,417.80
2023-05-05T03:11:28.017Z,418.58
2023-05-05T03:12:28.116Z,421.74
2023-05-05T03:13:28.199Z,418.32
2023-05-05T03:14:28.734Z,417.80
2023-05-05T03:15:28.349Z,419.89
2023-05-05T03:16:28.464Z,422.00
2023-05-05T03:17:34.500Z,418.85
2023-05-05T03:18:28.600Z,420.94
2023-05-05T03:19:28.669Z,420.42
2023-05-05T03:20:28.737Z,419.37
2023-05-05T03:21:28.826Z,419.63
2023-05-05T03:22:28.891Z,418.58
2023-05-05T03:23:28.971Z,420.15
2023-05-05T03:24:29.052Z,420.68
2023-05-05T03:25:29.125Z,419.11
2023-05-05T03:26:29.194Z,420.15
2023-05-05T03:27:29.302Z,420.94
2023-05-05T03:28:29.409Z,418.58
2023-05-05T03:29:29.494Z,419.63
2023-05-05T03:30:29.561Z,419.11
2023-05-05T03:31:29.669Z,421.47
2023-05-05T03:32:29.791Z,422.80
2023-05-05T03:33:29.801Z,420.42
2023-05-05T03:34:29.882Z,418.85
2023-05-05T03:35:29.982Z,420.15
2023-05-05T03:36:30.050Z,419.11
2023-05-05T03:37:30.123Z,419.89
2023-05-05T03:38:30.195Z,420.42
2023-05-05T03:39:30.272Z,420.15
2023-05-05T03:40:43.075Z,419.37
2023-05-05T03:41:30.474Z,419.63
2023-05-05T03:42:30.479Z,420.94
2023-05-05T03:43:30.566Z,418.58
2023-05-05T03:44:30.667Z,419.89
2023-05-05T03:45:30.762Z,420.42
2023-05-05T03:46:30.832Z,419.11
2023-05-05T03:47:30.911Z,420.42
2023-05-05T03:48:36.944Z,421.74
2023-05-05T03:49:31.042Z,420.15
2023-05-05T03:50:31.190Z,419.37
2023-05-05T03:51:31.200Z,417.28
2023-05-05T03:52:31.300Z,420.68
2023-05-05T03:53:31.391Z,421.47
2023-05-05T03:54:31.454Z,421.21
2023-05-05T03:55:31.563Z,421.74
2023-05-05T03:56:31.647Z,419.89
2023-05-05T03:57:31.740Z,419.89
2023-05-05T03:58:31.806Z,420.42
2023-05-05T03:59:31.883Z,420.42
2023-05-05T04:00:31.936Z,420.68
2023-05-05T04:01:32.031Z,418.58
2023-05-05T04:02:32.198Z,422.00
2023-05-05T04:03:32.367Z,422.53
2023-05-05T04:04:32.427Z,420.94
2023-05-05T04:05:32.475Z,423.33
2023-05-05T04:06:32.565Z,422.27
2023-05-05T04:07:32.576Z,419.63
2023-05-05T04:08:32.657Z,422.27
2023-05-05T04:09:32.730Z,421.47
2023-05-05T04:10:32.811Z,420.94
2023-05-05T04:11:32.885Z,423.60
2023-05-05T04:12:33.031Z,421.21
2023-05-05T04:13:33.057Z,419.89
2023-05-05T04:14:33.177Z,421.47
2023-05-05T04:15:33.242Z,418.06
2023-05-05T04:16:33.355Z,419.63
2023-05-05T04:17:33.422Z,421.74
2023-05-05T04:18:33.503Z,422.00
2023-05-05T04:19:39.641Z,421.47
2023-05-05T04:20:33.633Z,420.15
2023-05-05T04:21:33.715Z,420.15
2023-05-05T04:22:33.817Z,420.42
2023-05-05T04:23:33.892Z,420.68
2023-05-05T04:24:33.972Z,419.63
2023-05-05T04:25:34.058Z,421.21
2023-05-05T04:26:34.145Z,418.85
2023-05-05T04:27:34.269Z,420.94
2023-05-05T04:28:34.292Z,420.42
2023-05-05T04:29:34.376Z,420.68
2023-05-05T04:30:34.449Z,419.89
2023-05-05T04:31:34.548Z,420.94
2023-05-05T04:32:34.639Z,420.42
2023-05-05T04:33:34.669Z,419.89
2023-05-05T04:34:34.761Z,419.89
2023-05-05T04:35:34.838Z,419.11
2023-05-05T04:36:34.921Z,418.85
2023-05-05T04:37:34.995Z,417.80
2023-05-05T04:38:35.093Z,418.85
2023-05-05T04:39:35.160Z,419.11
2023-05-05T04:40:35.248Z,417.80
2023-05-05T04:41:35.304Z,418.06
2023-05-05T04:42:35.379Z,420.94
2023-05-05T04:43:35.463Z,419.37
2023-05-05T04:44:35.551Z,422.27
2023-05-05T04:45:35.648Z,417.80
2023-05-05T04:46:35.735Z,417.02
2023-05-05T04:47:35.838Z,417.80
2023-05-05T04:48:35.894Z,417.28
2023-05-05T04:49:35.965Z,418.32
2023-05-05T04:50:42.026Z,416.51
2023-05-05T04:51:36.122Z,417.02
2023-05-05T04:52:36.209Z,420.15
2023-05-05T04:53:36.333Z,417.02
2023-05-05T04:54:36.419Z,417.80
2023-05-05T04:55:36.418Z,416.77
2023-05-05T04:56:36.499Z,416.77
2023-05-05T04:57:36.607Z,418.58
2023-05-05T04:58:36.685Z,414.71
2023-05-05T04:59:36.753Z,418.85
2023-05-05T05:00:36.828Z,417.80
2023-05-05T05:01:38.578Z,418.58
2023-05-05T05:02:37.032Z,417.02
2023-05-05T05:03:37.221Z,417.80
2023-05-05T05:04:37.145Z,417.54
2023-05-05T05:05:37.220Z,417.28
2023-05-05T05:06:37.290Z,414.96
2023-05-05T05:07:37.363Z,416.77
2023-05-05T05:08:37.448Z,418.85
2023-05-05T05:09:37.525Z,415.48
2023-05-05T05:10:37.625Z,417.54
2023-05-05T05:11:37.730Z,414.20
2023-05-05T05:12:37.792Z,416.25
2023-05-05T05:13:37.873Z,416.51
2023-05-05T05:14:37.961Z,415.48
2023-05-05T05:15:37.999Z,414.45
2023-05-05T05:16:38.116Z,415.22
2023-05-05T05:17:38.203Z,414.45
2023-05-05T05:18:38.248Z,416.25
2023-05-05T05:19:38.348Z,414.96
2023-05-05T05:20:38.425Z,413.94
2023-05-05T05:21:44.472Z,413.69
2023-05-05T05:22:38.587Z,417.02
2023-05-05T05:23:38.891Z,414.96
2023-05-05T05:24:38.737Z,415.22
2023-05-05T05:25:38.829Z,414.20
2023-05-05T05:26:38.911Z,415.48
2023-05-05T05:27:38.978Z,414.45
2023-05-05T05:28:39.059Z,413.43
2023-05-05T05:29:39.153Z,415.99
2023-05-05T05:30:39.218Z,415.22
2023-05-05T05:31:39.333Z,414.45
2023-05-05T05:32:39.397Z,413.94
2023-05-05T05:33:39.458Z,414.45
2023-05-05T05:34:39.502Z,414.20
2023-05-05T05:35:39.620Z,413.94
2023-05-05T05:36:39.681Z,411.91
2023-05-05T05:37:39.758Z,412.42
2023-05-05T05:38:39.825Z,413.18
2023-05-05T05:39:42.666Z,414.45
2023-05-05T05:40:40.030Z,414.45
2023-05-05T05:41:40.086Z,417.28
2023-05-05T05:42:40.158Z,414.20
2023-05-05T05:43:40.218Z,413.43
2023-05-05T05:44:40.306Z,409.65
2023-05-05T05:45:40.417Z,413.43
2023-05-05T05:46:40.555Z,414.20
2023-05-05T05:47:40.601Z,415.22
2023-05-05T05:48:40.612Z,415.48
2023-05-05T05:49:40.691Z,414.20
2023-05-05T05:50:40.774Z,414.71
2023-05-05T05:51:40.879Z,414.71
2023-05-05T05:52:46.940Z,413.94
2023-05-05T05:53:41.016Z,413.69
2023-05-05T05:54:41.097Z,412.42
2023-05-05T05:55:41.168Z,411.15
2023-05-05T05:56:41.344Z,412.67
2023-05-05T05:57:41.346Z,413.43
2023-05-05T05:58:41.450Z,413.94
2023-05-05T05:59:41.513Z,413.69
2023-05-05T06:00:41.609Z,413.94
2023-05-05T06:01:41.718Z,412.92
2023-05-05T06:02:41.831Z,415.48
2023-05-05T06:03:41.971Z,411.91
2023-05-05T06:04:42.019Z,413.43
2023-05-05T06:05:42.036Z,412.42
2023-05-05T06:06:42.150Z,413.18
2023-05-05T06:07:42.186Z,410.90
2023-05-05T06:08:42.369Z,413.18
2023-05-05T06:09:42.348Z,410.65
2023-05-05T06:10:42.460Z,413.43
2023-05-05T06:11:42.528Z,412.42
2023-05-05T06:12:42.625Z,411.15
2023-05-05T06:13:42.695Z,410.90
2023-05-05T06:14:42.778Z,411.66
2023-05-05T06:15:42.910Z,411.91
2023-05-05T06:16:42.919Z,412.92
2023-05-05T06:17:43.063Z,413.18
2023-05-05T06:18:43.156Z,411.66
2023-05-05T06:19:43.164Z,411.91
2023-05-05T06:20:43.232Z,410.65
2023-05-05T06:21:43.319Z,411.66
2023-05-05T06:22:43.389Z,411.15
2023-05-05T06:23:49.465Z,412.16
2023-05-05T06:24:43.568Z,411.66
2023-05-05T06:25:43.680Z,411.41
2023-05-05T06:26:43.734Z,409.90
2023-05-05T06:27:43.853Z,408.90
2023-05-05T06:28:43.895Z,410.40
2023-05-05T06:29:43.977Z,410.90
2023-05-05T06:30:44.060Z,407.66
2023-05-05T06:31:44.146Z,409.40
2023-05-05T06:32:44.256Z,408.65
2023-05-05T06:33:44.288Z,410.65
2023-05-05T06:34:44.478Z,410.65
2023-05-05T06:35:44.447Z,407.91
2023-05-05T06:36:44.555Z,408.41
2023-05-05T06:37:44.605Z,410.15
2023-05-05T06:38:44.687Z,409.40
2023-05-05T06:39:44.780Z,406.92
2023-05-05T06:40:44.867Z,409.40
2023-05-05T06:41:44.977Z,410.40
2023-05-05T06:42:45.017Z,408.90
2023-05-05T06:43:45.119Z,408.16
2023-05-05T06:44:45.201Z,405.94
2023-05-05T06:45:45.281Z,407.17
2023-05-05T06:46:45.389Z,409.15
2023-05-05T06:47:45.475Z,407.66
2023-05-05T06:48:45.536Z,407.66
2023-05-05T06:49:45.657Z,407.42
2023-05-05T06:50:45.675Z,407.91
2023-05-05T06:51:45.761Z,406.92
2023-05-05T06:52:45.856Z,406.67
2023-05-05T06:53:45.971Z,407.66
2023-05-05T06:54:51.984Z,406.43
2023-05-05T06:55:46.118Z,405.69
2023-05-05T06:56:46.178Z,406.67
2023-05-05T06:57:46.263Z,407.91
2023-05-05T06:58:46.334Z,408.65
2023-05-05T06:59:46.421Z,406.18
2023-05-05T07:00:46.561Z,406.92
2023-05-05T07:01:46.583Z,406.92
2023-05-05T07:02:46.713Z,407.17
2023-05-05T07:03:46.787Z,405.69
2023-05-05T07:04:46.833Z,408.41
2023-05-05T07:05:46.913Z,405.94
2023-05-05T07:06:47.009Z,405.94
2023-05-05T07:07:47.080Z,405.94
2023-05-05T07:08:47.160Z,406.18
2023-05-05T07:09:47.254Z,406.92
2023-05-05T07:10:47.335Z,403.02
2023-05-05T07:11:47.400Z,405.94
2023-05-05T07:12:47.539Z,405.69
2023-05-05T07:13:47.563Z,405.20
2023-05-05T07:14:47.648Z,405.20
2023-05-05T07:15:47.709Z,406.43
2023-05-05T07:16:47.812Z,403.74
2023-05-05T07:17:47.908Z,405.45
2023-05-05T07:18:48.096Z,403.74
2023-05-05T07:19:48.053Z,404.71
2023-05-05T07:20:48.225Z,405.45
2023-05-05T07:21:48.250Z,402.77
2023-05-05T07:22:48.330Z,403.98
2023-05-05T07:23:48.398Z,403.02
2023-05-05T07:24:49.751Z,403.26
2023-05-05T07:25:54.905Z,404.71
2023-05-05T07:26:48.636Z,403.98
2023-05-05T07:27:48.705Z,403.50
2023-05-05T07:28:48.771Z,404.47
2023-05-05T07:29:48.857Z,402.77
2023-05-05T07:30:48.954Z,402.77
2023-05-05T07:31:49.091Z,403.02
2023-05-05T07:32:49.115Z,401.57
2023-05-05T07:33:49.182Z,404.47
2023-05-05T07:34:49.293Z,404.71
2023-05-05T07:35:49.343Z,402.77
2023-05-05T07:36:49.497Z,402.77
2023-05-05T07:37:49.513Z,402.05
2023-05-05T07:38:49.579Z,401.33
2023-05-05T07:39:49.679Z,402.53
2023-05-05T07:40:49.740Z,402.29
2023-05-05T07:41:49.896Z,401.81
2023-05-05T07:42:49.891Z,402.77
2023-05-05T07:43:50.003Z,399.90
2023-05-05T07:44:50.211Z,402.29
2023-05-05T07:45:50.177Z,400.37
2023-05-05T07:46:50.218Z,403.26
2023-05-05T07:47:50.672Z,400.14
2023-05-05T07:48:50.342Z,399.66
2023-05-05T07:49:50.467Z,402.53
2023-05-05T07:50:50.535Z,402.53
2023-05-05T07:51:50.650Z,399.42
2023-05-05T07:52:56.409Z,403.02
2023-05-05T07:53:50.756Z,400.85
2023-05-05T07:54:50.860Z,398.95
2023-05-05T07:55:50.913Z,399.18
2023-05-05T07:56:57.438Z,399.18
2023-05-05T07:57:51.099Z,399.66
2023-05-05T07:58:51.230Z,401.09
2023-05-05T07:59:51.282Z,401.81
2023-05-05T08:00:51.377Z,399.66
2023-05-05T08:01:53.691Z,403.26
2023-05-05T08:02:51.671Z,398.71
2023-05-05T08:03:51.758Z,400.14
2023-05-05T08:04:51.640Z,399.66
2023-05-05T08:05:51.878Z,397.06
2023-05-05T08:06:51.803Z,405.45
2023-05-05T08:07:51.914Z,399.90
2023-05-05T08:08:51.939Z,396.83
2023-05-05T08:09:52.038Z,404.47
2023-05-05T08:10:52.137Z,405.69
2023-05-05T08:11:52.209Z,402.29
2023-05-05T08:12:52.391Z,402.77
2023-05-05T08:13:52.376Z,397.06
2023-05-05T08:14:52.481Z,399.42
2023-05-05T08:15:52.692Z,398.00
2023-05-05T08:16:52.623Z,397.77
2023-05-05T08:17:52.775Z,396.12
2023-05-05T08:18:52.822Z,396.59
2023-05-05T08:19:52.858Z,396.36
2023-05-05T08:20:52.956Z,398.71
2023-05-05T08:21:52.986Z,394.96
2023-05-05T08:22:53.128Z,403.26
2023-05-05T08:23:53.168Z,405.45
2023-05-05T08:24:53.259Z,404.96
2023-05-05T08:25:53.335Z,398.00
2023-05-05T08:26:53.426Z,397.77
2023-05-05T08:28:00.003Z,395.42
2023-05-05T08:28:53.610Z,394.03
2023-05-05T08:29:53.641Z,397.53
2023-05-05T08:30:53.977Z,398.95
2023-05-05T08:31:53.924Z,397.06
2023-05-05T08:32:53.944Z,401.81
2023-05-05T08:33:53.996Z,397.06
2023-05-05T08:34:54.066Z,395.89
2023-05-05T08:35:54.163Z,401.09
2023-05-05T08:36:54.256Z,401.81
2023-05-05T08:37:56.005Z,396.12
2023-05-05T08:38:54.448Z,397.30
2023-05-05T08:39:54.479Z,402.05
2023-05-05T08:40:54.509Z,395.66
2023-05-05T08:41:54.604Z,402.29
2023-05-05T08:42:54.677Z,394.96
2023-05-05T08:43:54.857Z,397.53
2023-05-05T08:44:54.928Z,401.81
2023-05-05T08:45:54.857Z,399.66
2023-05-05T08:46:55.023Z,401.33
2023-05-05T08:47:55.068Z,395.19
2023-05-05T08:48:55.143Z,401.09
2023-05-05T08:49:55.220Z,401.81
2023-05-05T08:50:56.710Z,397.30
2023-05-05T08:51:55.393Z,393.80
2023-05-05T08:52:55.494Z,396.59
2023-05-05T08:53:55.550Z,395.42
2023-05-05T08:54:55.628Z,400.85
2023-05-05T08:55:55.660Z,392.65
2023-05-05T08:56:55.761Z,399.18
2023-05-05T08:57:55.858Z,397.06
2023-05-05T08:59:01.973Z,399.66
2023-05-05T08:59:56.000Z,392.88
2023-05-05T09:00:56.083Z,393.57
2023-05-05T09:01:56.231Z,397.30
2023-05-05T09:02:56.469Z,395.42
2023-05-05T09:03:56.312Z,392.65
2023-05-05T09:04:56.437Z,393.57
2023-05-05T09:05:56.496Z,393.57
2023-05-05T09:06:56.535Z,393.57
2023-05-05T09:07:56.634Z,396.59
2023-05-05T09:08:59.501Z,394.27
2023-05-05T09:09:56.860Z,398.95
2023-05-05T09:10:56.925Z,394.03
2023-05-05T09:11:56.965Z,397.53
2023-05-05T09:12:57.172Z,400.85
2023-05-05T09:13:57.226Z,399.90
2023-05-05T09:14:59.022Z,401.09
2023-05-05T09:15:57.397Z,395.89
2023-05-05T09:16:57.454Z,391.28
2023-05-05T09:17:57.591Z,397.06
2023-05-05T09:18:57.574Z,391.51
2023-05-05T09:19:57.624Z,398.95
2023-05-05T09:20:59.384Z,396.36
2023-05-05T09:21:57.808Z,397.53
2023-05-05T09:22:57.957Z,399.66
2023-05-05T09:24:00.367Z,391.28
2023-05-05T09:24:58.073Z,394.03
2023-05-05T09:25:58.145Z,396.36
2023-05-05T09:26:59.132Z,398.71
2023-05-05T09:27:58.278Z,391.74
2023-05-05T09:28:59.327Z,396.83
2023-05-05T09:30:04.508Z,397.77
2023-05-05T09:30:58.669Z,398.47
2023-05-05T09:31:58.702Z,398.24
2023-05-05T09:32:58.781Z,396.59
2023-05-05T09:33:58.804Z,396.36
2023-05-05T09:34:58.890Z,398.71
2023-05-05T09:35:58.979Z,397.30
2023-05-05T09:36:59.075Z,391.05
2023-05-05T09:37:59.123Z,398.00
2023-05-05T09:38:59.201Z,389.01
2023-05-05T09:39:59.305Z,391.74
2023-05-05T09:40:59.407Z,395.42
2023-05-05T09:41:59.489Z,388.11
2023-05-05T09:42:59.585Z,392.19
2023-05-05T09:43:59.619Z,393.57
2023-05-05T09:45:00.126Z,396.36
2023-05-05T09:45:59.876Z,395.19
2023-05-05T09:46:59.905Z,398.71
2023-05-05T09:48:00.768Z,391.51
2023-05-05T09:49:00.132Z,395.66
2023-05-05T09:50:00.138Z,391.28
2023-05-05T09:51:00.218Z,393.80
2023-05-05T09:52:00.275Z,393.57
2023-05-05T09:53:00.355Z,390.37
2023-05-05T09:54:00.417Z,392.88
2023-05-05T09:55:00.548Z,393.57
2023-05-05T09:56:00.657Z,393.57
2023-05-05T09:57:00.737Z,392.65
2023-05-05T09:58:00.808Z,384.78
2023-05-05T09:59:00.891Z,392.88
2023-05-05T10:00:00.983Z,386.77
2023-05-05T10:01:07.081Z,391.28
2023-05-05T10:02:01.168Z,392.42
2023-05-05T10:03:01.308Z,392.65
2023-05-05T10:04:01.352Z,391.96
2023-05-05T10:05:02.463Z,387.44
2023-05-05T10:06:01.533Z,393.57
2023-05-05T10:07:01.598Z,388.56
2023-05-05T10:08:01.685Z,391.51
2023-05-05T10:09:01.808Z,390.60
2023-05-05T10:10:01.826Z,393.11
2023-05-05T10:11:01.917Z,391.28
2023-05-05T10:12:02.034Z,391.96
2023-05-05T10:13:02.176Z,392.19
2023-05-05T10:14:02.169Z,391.51
2023-05-05T10:15:02.296Z,392.65
2023-05-05T10:16:02.353Z,392.19
2023-05-05T10:17:02.459Z,390.82
2023-05-05T10:18:06.902Z,389.92
2023-05-05T10:19:02.596Z,386.77
2023-05-05T10:20:02.665Z,391.74
2023-05-05T10:21:02.724Z,391.05
2023-05-05T10:22:02.817Z,391.28
2023-05-05T10:23:02.894Z,390.14
2023-05-05T10:24:02.991Z,390.60
2023-05-05T10:25:03.062Z,389.92
2023-05-05T10:26:03.169Z,392.42
2023-05-05T10:27:03.236Z,391.96
2023-05-05T10:28:03.319Z,389.92
2023-05-05T10:29:03.458Z,389.69
2023-05-05T10:30:03.537Z,391.51
2023-05-05T10:31:12.843Z,388.11
2023-05-05T10:33:31.767Z,450.89
2023-05-05T10:34:19.497Z,440.83
2023-05-05T10:35:19.573Z,430.38
2023-05-05T10:36:19.660Z,429.83
2023-05-05T10:37:19.745Z,425.21
2023-05-05T10:38:19.803Z,422.80
2023-05-05T10:39:19.876Z,418.06
2023-05-05T10:40:19.938Z,416.51
2023-05-05T10:41:20.039Z,416.51
2023-05-05T10:42:20.284Z,412.16
2023-05-05T10:43:20.282Z,410.65
2023-05-05T10:44:20.292Z,410.65
2023-05-05T10:45:20.433Z,408.90
2023-05-05T10:46:20.543Z,406.67
2023-05-05T10:47:20.574Z,404.23
2023-05-05T10:48:20.684Z,404.23
2023-05-05T10:49:20.800Z,404.23
2023-05-05T10:50:20.882Z,404.96
2023-05-05T10:51:31.034Z,402.29
2023-05-05T10:52:21.006Z,402.77
2023-05-05T10:53:21.065Z,401.33
2023-05-05T10:54:21.326Z,399.90
2023-05-05T10:55:21.244Z,399.66
2023-05-05T10:56:21.337Z,400.14
2023-05-05T10:57:21.409Z,398.95
2023-05-05T10:58:21.510Z,398.47
2023-05-05T10:59:21.634Z,397.06
2023-05-05T11:00:21.709Z,398.95
2023-05-05T11:01:21.794Z,398.24
2023-05-05T11:02:21.866Z,397.77
2023-05-05T11:03:22.012Z,397.30
2023-05-05T11:04:28.004Z,396.36
2023-05-05T11:05:22.076Z,396.83
2023-05-05T11:06:22.153Z,396.83
2023-05-05T11:07:22.244Z,396.12
2023-05-05T11:08:22.370Z,394.73
2023-05-05T11:09:22.423Z,395.89
2023-05-05T11:10:22.504Z,393.34
2023-05-05T11:11:22.571Z,393.80
2023-05-05T11:12:22.669Z,392.42
2023-05-05T11:13:22.834Z,394.96
2023-05-05T11:14:22.850Z,393.34
2023-05-05T11:15:22.950Z,391.96
2023-05-05T11:16:23.026Z,395.42
2023-05-05T11:17:23.116Z,394.03
2023-05-05T11:18:23.176Z,391.96
2023-05-05T11:19:23.267Z,391.05
2023-05-05T11:20:23.355Z,391.96
2023-05-05T11:21:23.458Z,391.96
2023-05-05T11:22:23.553Z,391.74
2023-05-05T11:23:23.638Z,391.28
2023-05-05T11:24:23.783Z,391.05
2023-05-05T11:25:23.793Z,393.34
2023-05-05T11:26:23.872Z,389.69
2023-05-05T11:27:23.959Z,390.14
2023-05-05T11:28:24.036Z,392.65
2023-05-05T11:29:24.125Z,391.05
2023-05-05T11:30:24.204Z,389.92
2023-05-05T11:31:24.402Z,389.69
2023-05-05T11:32:24.441Z,389.69
2023-05-05T11:33:24.490Z,388.34
2023-05-05T11:34:24.561Z,390.82
2023-05-05T11:35:30.612Z,389.69
2023-05-05T11:36:24.751Z,387.67
2023-05-05T11:37:24.811Z,390.37
2023-05-05T11:38:24.874Z,389.01
2023-05-05T11:39:24.966Z,387.89
2023-05-05T11:40:25.079Z,388.11
2023-05-05T11:41:25.134Z,388.34
2023-05-05T11:42:25.203Z,387.67
2023-05-05T11:43:25.312Z,388.11
2023-05-05T11:44:25.371Z,389.01
2023-05-05T11:45:25.464Z,386.55
2023-05-05T11:46:25.568Z,390.37
2023-05-05T11:47:25.657Z,387.67
2023-05-05T11:48:25.727Z,387.00
2023-05-05T11:49:25.765Z,387.00
2023-05-05T11:50:25.844Z,387.00
2023-05-05T11:51:25.928Z,387.00
2023-05-05T11:52:26.040Z,386.55
2023-05-05T11:53:26.075Z,386.55
2023-05-05T11:54:26.168Z,387.67
2023-05-05T11:55:26.267Z,385.22
2023-05-05T11:56:26.335Z,385.22
2023-05-05T11:57:26.507Z,386.77
2023-05-05T11:58:26.520Z,390.14
2023-05-05T11:59:26.587Z,384.78
2023-05-05T12:00:26.683Z,383.24
2023-05-05T12:01:26.769Z,386.33
2023-05-05T12:02:26.923Z,385.44
2023-05-05T12:03:27.263Z,384.78
2023-05-05T12:04:27.069Z,385.44
2023-05-05T12:05:27.115Z,383.68
2023-05-05T12:06:33.176Z,384.56
2023-05-05T12:07:27.278Z,387.67
2023-05-05T12:08:27.354Z,386.33
2023-05-05T12:09:27.442Z,385.00
2023-05-05T12:10:27.516Z,385.44
2023-05-05T12:11:27.582Z,385.44
2023-05-05T12:12:27.664Z,385.22
2023-05-05T12:13:27.791Z,387.00
2023-05-05T12:14:27.808Z,383.46
2023-05-05T12:15:27.892Z,385.00
2023-05-05T12:16:28.020Z,381.72
2023-05-05T12:17:28.075Z,385.66
2023-05-05T12:18:28.147Z,385.22
2023-05-05T12:19:28.201Z,383.24
2023-05-05T12:20:28.261Z,384.34
2023-05-05T12:21:28.334Z,383.03
2023-05-05T12:22:28.427Z,382.37
2023-05-05T12:23:28.511Z,381.50
2023-05-05T12:24:28.605Z,382.37
2023-05-05T12:25:28.663Z,379.99
2023-05-05T12:26:28.766Z,381.07
2023-05-05T12:27:28.834Z,383.68
2023-05-05T12:28:28.960Z,384.12
2023-05-05T12:29:29.147Z,382.15
2023-05-05T12:30:29.147Z,383.68